sensor_id;sensor_type;location;lat;lon;timestamp;P1;durP1;ratioP1;P2;durP2;ratioP2
22924;SDS011;11628;51.072;3.712;2023-04-29T00:00:42;51.70;;;31.52;;
22924;SDS011;11628;51.072;3.712;2023-04-29T00:03:08;50.78;;;31.38;;
22924;SDS011;11628;51.072;3.712;2023-04-29T00:05:34;51.22;;;31.85;;
22924;SDS011;11628;51.072;3.712;2023-04-29T00:08:00;46.92;;;32.13;;
22924;SDS011;11628;51.072;3.712;2023-04-29T00:10:26;53.85;;;32.85;;
22924;SDS011;11628;51.072;3.712;2023-04-29T00:12:51;48.60;;;31.73;;
22924;SDS011;11628;51.072;3.712;2023-04-29T00:15:18;54.17;;;33.17;;
22924;SDS011;11628;51.072;3.712;2023-04-29T00:17:44;50.65;;;31.35;;
22924;SDS011;11628;51.072;3.712;2023-04-29T00:20:10;54.42;;;33.95;;
22924;SDS011;11628;51.072;3.712;2023-04-29T00:22:36;53.92;;;32.85;;
22924;SDS011;11628;51.072;3.712;2023-04-29T00:25:03;55.30;;;33.30;;
22924;SDS011;11628;51.072;3.712;2023-04-29T00:27:31;55.22;;;33.22;;
22924;SDS011;11628;51.072;3.712;2023-04-29T00:29:57;49.53;;;32.20;;
22924;SDS011;11628;51.072;3.712;2023-04-29T00:32:23;55.42;;;32.83;;
22924;SDS011;11628;51.072;3.712;2023-04-29T00:34:49;50.55;;;32.60;;
22924;SDS011;11628;51.072;3.712;2023-04-29T00:37:15;55.03;;;34.22;;
22924;SDS011;11628;51.072;3.712;2023-04-29T00:39:41;58.20;;;34.90;;
22924;SDS011;11628;51.072;3.712;2023-04-29T00:42:07;53.33;;;35.63;;
22924;SDS011;11628;51.072;3.712;2023-04-29T00:44:33;61.90;;;36.30;;
22924;SDS011;11628;51.072;3.712;2023-04-29T00:46:59;56.83;;;34.97;;
22924;SDS011;11628;51.072;3.712;2023-04-29T00:49:25;55.35;;;35.58;;
22924;SDS011;11628;51.072;3.712;2023-04-29T00:51:52;58.38;;;35.50;;
22924;SDS011;11628;51.072;3.712;2023-04-29T00:54:20;57.45;;;37.08;;
22924;SDS011;11628;51.072;3.712;2023-04-29T00:56:46;56.92;;;36.85;;
22924;SDS011;11628;51.072;3.712;2023-04-29T00:59:13;55.47;;;36.63;;
22924;SDS011;11628;51.072;3.712;2023-04-29T01:01:40;53.45;;;35.28;;
22924;SDS011;11628;51.072;3.712;2023-04-29T01:04:06;52.00;;;35.08;;
22924;SDS011;11628;51.072;3.712;2023-04-29T01:15:11;46.03;;;32.65;;
22924;SDS011;11628;51.072;3.712;2023-04-29T01:17:54;48.85;;;31.65;;
22924;SDS011;11628;51.072;3.712;2023-04-29T01:20:24;47.08;;;32.28;;
22924;SDS011;11628;51.072;3.712;2023-04-29T01:22:51;41.08;;;31.67;;
22924;SDS011;11628;51.072;3.712;2023-04-29T01:25:17;43.85;;;31.88;;
22924;SDS011;11628;51.072;3.712;2023-04-29T01:27:50;40.55;;;30.17;;
22924;SDS011;11628;51.072;3.712;2023-04-29T01:30:30;41.30;;;31.52;;
22924;SDS011;11628;51.072;3.712;2023-04-29T01:33:25;41.85;;;29.63;;
22924;SDS011;11628;51.072;3.712;2023-04-29T01:36:09;42.75;;;31.38;;
22924;SDS011;11628;51.072;3.712;2023-04-29T01:38:46;36.70;;;27.52;;
22924;SDS011;11628;51.072;3.712;2023-04-29T01:44:17;30.42;;;25.48;;
22924;SDS011;11628;51.072;3.712;2023-04-29T01:46:48;32.90;;;25.58;;
22924;SDS011;11628;51.072;3.712;2023-04-29T01:49:18;32.25;;;25.00;;
22924;SDS011;11628;51.072;3.712;2023-04-29T01:51:53;31.90;;;23.58;;
22924;SDS011;11628;51.072;3.712;2023-04-29T01:54:20;27.90;;;23.17;;
22924;SDS011;11628;51.072;3.712;2023-04-29T01:56:46;29.58;;;23.90;;
22924;SDS011;11628;51.072;3.712;2023-04-29T01:59:12;29.65;;;22.38;;
22924;SDS011;11628;51.072;3.712;2023-04-29T02:01:38;28.88;;;22.77;;
22924;SDS011;11628;51.072;3.712;2023-04-29T02:04:04;29.02;;;24.30;;
22924;SDS011;11628;51.072;3.712;2023-04-29T02:06:29;29.48;;;22.90;;
22924;SDS011;11628;51.072;3.712;2023-04-29T02:08:56;28.65;;;24.30;;
22924;SDS011;11628;51.072;3.712;2023-04-29T02:11:22;35.22;;;24.27;;
22924;SDS011;11628;51.072;3.712;2023-04-29T02:13:48;29.55;;;24.55;;
22924;SDS011;11628;51.072;3.712;2023-04-29T02:16:14;31.30;;;23.08;;
22924;SDS011;11628;51.072;3.712;2023-04-29T02:18:40;32.17;;;25.30;;
22924;SDS011;11628;51.072;3.712;2023-04-29T02:21:06;30.38;;;24.17;;
22924;SDS011;11628;51.072;3.712;2023-04-29T02:23:33;32.53;;;23.42;;
22924;SDS011;11628;51.072;3.712;2023-04-29T02:25:59;29.85;;;24.15;;
22924;SDS011;11628;51.072;3.712;2023-04-29T02:28:25;32.30;;;23.50;;
22924;SDS011;11628;51.072;3.712;2023-04-29T02:30:51;26.50;;;22.88;;
22924;SDS011;11628;51.072;3.712;2023-04-29T02:33:18;27.35;;;22.27;;
22924;SDS011;11628;51.072;3.712;2023-04-29T02:35:44;28.08;;;22.35;;
22924;SDS011;11628;51.072;3.712;2023-04-29T02:38:09;24.88;;;20.15;;
22924;SDS011;11628;51.072;3.712;2023-04-29T02:40:42;25.80;;;20.23;;
22924;SDS011;11628;51.072;3.712;2023-04-29T02:43:09;24.27;;;18.70;;
22924;SDS011;11628;51.072;3.712;2023-04-29T02:45:35;26.02;;;18.77;;
22924;SDS011;11628;51.072;3.712;2023-04-29T02:48:01;24.10;;;18.85;;
22924;SDS011;11628;51.072;3.712;2023-04-29T02:50:27;25.13;;;18.58;;
22924;SDS011;11628;51.072;3.712;2023-04-29T02:52:53;24.27;;;21.20;;
22924;SDS011;11628;51.072;3.712;2023-04-29T02:55:19;26.58;;;20.90;;
22924;SDS011;11628;51.072;3.712;2023-04-29T02:57:44;26.40;;;20.52;;
22924;SDS011;11628;51.072;3.712;2023-04-29T03:00:10;27.67;;;21.45;;
22924;SDS011;11628;51.072;3.712;2023-04-29T03:02:36;25.02;;;21.50;;
22924;SDS011;11628;51.072;3.712;2023-04-29T03:05:02;26.35;;;21.63;;
22924;SDS011;11628;51.072;3.712;2023-04-29T03:07:28;25.67;;;20.08;;
22924;SDS011;11628;51.072;3.712;2023-04-29T03:09:56;26.40;;;20.35;;
22924;SDS011;11628;51.072;3.712;2023-04-29T03:12:22;23.58;;;18.25;;
22924;SDS011;11628;51.072;3.712;2023-04-29T03:14:47;20.00;;;17.75;;
22924;SDS011;11628;51.072;3.712;2023-04-29T03:17:13;20.65;;;17.40;;
22924;SDS011;11628;51.072;3.712;2023-04-29T03:19:39;22.65;;;18.40;;
22924;SDS011;11628;51.072;3.712;2023-04-29T03:22:05;22.90;;;18.98;;
22924;SDS011;11628;51.072;3.712;2023-04-29T03:24:32;24.83;;;18.35;;
22924;SDS011;11628;51.072;3.712;2023-04-29T03:26:58;25.98;;;18.27;;
22924;SDS011;11628;51.072;3.712;2023-04-29T03:29:26;25.83;;;17.85;;
22924;SDS011;11628;51.072;3.712;2023-04-29T03:31:52;21.85;;;18.30;;
22924;SDS011;11628;51.072;3.712;2023-04-29T03:34:18;26.50;;;18.77;;
22924;SDS011;11628;51.072;3.712;2023-04-29T03:36:44;24.60;;;18.90;;
22924;SDS011;11628;51.072;3.712;2023-04-29T03:39:10;23.02;;;19.45;;
22924;SDS011;11628;51.072;3.712;2023-04-29T03:41:36;21.45;;;19.23;;
22924;SDS011;11628;51.072;3.712;2023-04-29T03:44:02;25.10;;;18.25;;
22924;SDS011;11628;51.072;3.712;2023-04-29T03:46:29;25.17;;;17.70;;
22924;SDS011;11628;51.072;3.712;2023-04-29T03:48:55;24.92;;;17.00;;
22924;SDS011;11628;51.072;3.712;2023-04-29T03:51:21;24.23;;;16.83;;
22924;SDS011;11628;51.072;3.712;2023-04-29T03:53:48;23.35;;;16.95;;
22924;SDS011;11628;51.072;3.712;2023-04-29T03:56:14;25.42;;;17.40;;
22924;SDS011;11628;51.072;3.712;2023-04-29T03:58:40;23.23;;;16.83;;
22924;SDS011;11628;51.072;3.712;2023-04-29T04:01:06;21.20;;;16.00;;
22924;SDS011;11628;51.072;3.712;2023-04-29T04:03:31;23.75;;;16.40;;
22924;SDS011;11628;51.072;3.712;2023-04-29T04:05:57;20.20;;;17.27;;
22924;SDS011;11628;51.072;3.712;2023-04-29T04:08:23;19.63;;;16.05;;
22924;SDS011;11628;51.072;3.712;2023-04-29T04:10:49;20.92;;;16.10;;
22924;SDS011;11628;51.072;3.712;2023-04-29T04:13:15;22.70;;;16.95;;
22924;SDS011;11628;51.072;3.712;2023-04-29T04:15:40;26.88;;;17.50;;
22924;SDS011;11628;51.072;3.712;2023-04-29T04:18:06;22.95;;;16.45;;
22924;SDS011;11628;51.072;3.712;2023-04-29T04:20:35;18.48;;;16.15;;
22924;SDS011;11628;51.072;3.712;2023-04-29T04:23:01;21.75;;;16.88;;
22924;SDS011;11628;51.072;3.712;2023-04-29T04:25:27;21.10;;;16.65;;
22924;SDS011;11628;51.072;3.712;2023-04-29T04:27:54;22.10;;;17.27;;
22924;SDS011;11628;51.072;3.712;2023-04-29T04:30:19;21.23;;;16.25;;
22924;SDS011;11628;51.072;3.712;2023-04-29T04:32:45;18.88;;;15.93;;
22924;SDS011;11628;51.072;3.712;2023-04-29T04:35:11;19.10;;;16.55;;
22924;SDS011;11628;51.072;3.712;2023-04-29T04:37:37;22.88;;;16.98;;
22924;SDS011;11628;51.072;3.712;2023-04-29T04:40:03;24.23;;;16.55;;
22924;SDS011;11628;51.072;3.712;2023-04-29T04:42:29;27.55;;;18.33;;
22924;SDS011;11628;51.072;3.712;2023-04-29T04:44:54;27.17;;;18.85;;
22924;SDS011;11628;51.072;3.712;2023-04-29T04:47:21;24.00;;;19.73;;
22924;SDS011;11628;51.072;3.712;2023-04-29T04:49:47;23.65;;;18.65;;
22924;SDS011;11628;51.072;3.712;2023-04-29T04:52:14;22.45;;;19.17;;
22924;SDS011;11628;51.072;3.712;2023-04-29T04:54:40;25.42;;;19.17;;
22924;SDS011;11628;51.072;3.712;2023-04-29T04:57:08;25.92;;;19.27;;
22924;SDS011;11628;51.072;3.712;2023-04-29T04:59:34;24.33;;;19.83;;
22924;SDS011;11628;51.072;3.712;2023-04-29T05:02:00;26.73;;;20.35;;
22924;SDS011;11628;51.072;3.712;2023-04-29T05:04:26;31.88;;;20.77;;
22924;SDS011;11628;51.072;3.712;2023-04-29T05:06:51;26.35;;;21.52;;
22924;SDS011;11628;51.072;3.712;2023-04-29T05:09:17;24.20;;;20.73;;
22924;SDS011;11628;51.072;3.712;2023-04-29T05:11:43;23.25;;;20.35;;
22924;SDS011;11628;51.072;3.712;2023-04-29T05:14:09;25.38;;;22.45;;
22924;SDS011;11628;51.072;3.712;2023-04-29T05:16:34;29.40;;;22.80;;
22924;SDS011;11628;51.072;3.712;2023-04-29T05:19:00;29.95;;;24.45;;
22924;SDS011;11628;51.072;3.712;2023-04-29T05:21:26;31.80;;;22.83;;
22924;SDS011;11628;51.072;3.712;2023-04-29T05:23:51;29.95;;;23.65;;
22924;SDS011;11628;51.072;3.712;2023-04-29T05:26:17;26.75;;;23.85;;
22924;SDS011;11628;51.072;3.712;2023-04-29T05:28:43;26.58;;;23.13;;
22924;SDS011;11628;51.072;3.712;2023-04-29T05:31:09;27.08;;;23.23;;
22924;SDS011;11628;51.072;3.712;2023-04-29T05:33:35;29.40;;;24.73;;
22924;SDS011;11628;51.072;3.712;2023-04-29T05:36:01;29.45;;;21.88;;
22924;SDS011;11628;51.072;3.712;2023-04-29T05:38:26;27.33;;;22.02;;
22924;SDS011;11628;51.072;3.712;2023-04-29T05:40:54;29.48;;;23.27;;
22924;SDS011;11628;51.072;3.712;2023-04-29T05:43:20;28.17;;;24.10;;
22924;SDS011;11628;51.072;3.712;2023-04-29T05:45:46;32.20;;;23.73;;
22924;SDS011;11628;51.072;3.712;2023-04-29T05:48:12;30.73;;;25.98;;
22924;SDS011;11628;51.072;3.712;2023-04-29T05:50:37;29.15;;;25.08;;
22924;SDS011;11628;51.072;3.712;2023-04-29T05:53:03;34.65;;;25.48;;
22924;SDS011;11628;51.072;3.712;2023-04-29T05:55:29;30.70;;;23.88;;
22924;SDS011;11628;51.072;3.712;2023-04-29T05:57:55;32.03;;;25.80;;
22924;SDS011;11628;51.072;3.712;2023-04-29T06:00:21;38.92;;;25.33;;
22924;SDS011;11628;51.072;3.712;2023-04-29T06:02:47;34.38;;;24.77;;
22924;SDS011;11628;51.072;3.712;2023-04-29T06:05:13;33.55;;;24.92;;
22924;SDS011;11628;51.072;3.712;2023-04-29T06:07:39;31.88;;;24.48;;
22924;SDS011;11628;51.072;3.712;2023-04-29T06:10:06;28.10;;;24.27;;
22924;SDS011;11628;51.072;3.712;2023-04-29T06:12:33;30.45;;;24.45;;
22924;SDS011;11628;51.072;3.712;2023-04-29T06:14:59;27.15;;;23.70;;
22924;SDS011;11628;51.072;3.712;2023-04-29T06:17:25;31.42;;;25.55;;
22924;SDS011;11628;51.072;3.712;2023-04-29T06:19:53;35.35;;;25.70;;
22924;SDS011;11628;51.072;3.712;2023-04-29T06:22:19;27.63;;;23.48;;
22924;SDS011;11628;51.072;3.712;2023-04-29T06:24:45;29.27;;;25.00;;
22924;SDS011;11628;51.072;3.712;2023-04-29T06:27:13;34.50;;;26.27;;
22924;SDS011;11628;51.072;3.712;2023-04-29T06:29:39;33.15;;;25.15;;
22924;SDS011;11628;51.072;3.712;2023-04-29T06:32:06;36.55;;;24.92;;
22924;SDS011;11628;51.072;3.712;2023-04-29T06:34:31;31.30;;;25.08;;
22924;SDS011;11628;51.072;3.712;2023-04-29T06:36:57;31.15;;;23.30;;
22924;SDS011;11628;51.072;3.712;2023-04-29T06:39:23;28.20;;;23.95;;
22924;SDS011;11628;51.072;3.712;2023-04-29T06:41:48;26.77;;;22.88;;
22924;SDS011;11628;51.072;3.712;2023-04-29T06:44:16;30.23;;;23.05;;
22924;SDS011;11628;51.072;3.712;2023-04-29T06:46:42;33.83;;;24.20;;
22924;SDS011;11628;51.072;3.712;2023-04-29T06:49:09;28.67;;;22.33;;
22924;SDS011;11628;51.072;3.712;2023-04-29T06:51:35;29.05;;;22.33;;
22924;SDS011;11628;51.072;3.712;2023-04-29T06:54:02;27.92;;;21.83;;
22924;SDS011;11628;51.072;3.712;2023-04-29T06:56:28;24.27;;;21.70;;
22924;SDS011;11628;51.072;3.712;2023-04-29T06:58:53;28.45;;;21.48;;
22924;SDS011;11628;51.072;3.712;2023-04-29T07:01:19;27.63;;;22.00;;
22924;SDS011;11628;51.072;3.712;2023-04-29T07:03:45;22.70;;;19.92;;
22924;SDS011;11628;51.072;3.712;2023-04-29T07:06:11;27.48;;;21.92;;
22924;SDS011;11628;51.072;3.712;2023-04-29T07:08:37;28.50;;;20.95;;
22924;SDS011;11628;51.072;3.712;2023-04-29T07:11:02;22.67;;;20.40;;
22924;SDS011;11628;51.072;3.712;2023-04-29T07:13:28;26.08;;;21.30;;
22924;SDS011;11628;51.072;3.712;2023-04-29T07:15:54;30.73;;;22.20;;
22924;SDS011;11628;51.072;3.712;2023-04-29T07:18:20;24.10;;;20.13;;
22924;SDS011;11628;51.072;3.712;2023-04-29T07:20:45;29.40;;;20.50;;
22924;SDS011;11628;51.072;3.712;2023-04-29T07:23:12;25.95;;;19.40;;
22924;SDS011;11628;51.072;3.712;2023-04-29T07:25:39;28.60;;;19.35;;
22924;SDS011;11628;51.072;3.712;2023-04-29T07:28:05;25.83;;;21.02;;
22924;SDS011;11628;51.072;3.712;2023-04-29T07:30:32;25.33;;;19.30;;
22924;SDS011;11628;51.072;3.712;2023-04-29T07:32:58;30.63;;;20.75;;
22924;SDS011;11628;51.072;3.712;2023-04-29T07:35:24;26.52;;;19.98;;
22924;SDS011;11628;51.072;3.712;2023-04-29T07:37:51;27.33;;;20.00;;
22924;SDS011;11628;51.072;3.712;2023-04-29T07:40:16;25.95;;;20.08;;
22924;SDS011;11628;51.072;3.712;2023-04-29T07:42:42;21.65;;;19.00;;
22924;SDS011;11628;51.072;3.712;2023-04-29T07:45:08;24.77;;;19.73;;
22924;SDS011;11628;51.072;3.712;2023-04-29T07:47:34;26.90;;;20.20;;
22924;SDS011;11628;51.072;3.712;2023-04-29T07:50:00;26.58;;;19.67;;
22924;SDS011;11628;51.072;3.712;2023-04-29T07:52:26;22.73;;;18.00;;
22924;SDS011;11628;51.072;3.712;2023-04-29T07:54:52;29.02;;;20.60;;
22924;SDS011;11628;51.072;3.712;2023-04-29T07:57:20;29.42;;;20.33;;
22924;SDS011;11628;51.072;3.712;2023-04-29T07:59:46;24.38;;;19.38;;
22924;SDS011;11628;51.072;3.712;2023-04-29T08:02:15;23.63;;;17.80;;
22924;SDS011;11628;51.072;3.712;2023-04-29T08:04:40;24.33;;;18.08;;
22924;SDS011;11628;51.072;3.712;2023-04-29T08:07:06;20.23;;;17.25;;
22924;SDS011;11628;51.072;3.712;2023-04-29T08:09:33;24.20;;;19.75;;
22924;SDS011;11628;51.072;3.712;2023-04-29T08:11:59;22.48;;;17.38;;
22924;SDS011;11628;51.072;3.712;2023-04-29T08:14:26;21.85;;;17.15;;
22924;SDS011;11628;51.072;3.712;2023-04-29T08:16:52;19.92;;;17.15;;
22924;SDS011;11628;51.072;3.712;2023-04-29T08:19:18;20.17;;;16.13;;
22924;SDS011;11628;51.072;3.712;2023-04-29T08:21:45;22.58;;;15.90;;
22924;SDS011;11628;51.072;3.712;2023-04-29T08:24:11;23.48;;;18.73;;
22924;SDS011;11628;51.072;3.712;2023-04-29T08:26:38;23.75;;;17.70;;
22924;SDS011;11628;51.072;3.712;2023-04-29T08:29:05;20.45;;;18.23;;
22924;SDS011;11628;51.072;3.712;2023-04-29T08:31:31;22.83;;;18.60;;
22924;SDS011;11628;51.072;3.712;2023-04-29T08:33:57;25.48;;;19.08;;
22924;SDS011;11628;51.072;3.712;2023-04-29T08:36:23;23.70;;;18.20;;
22924;SDS011;11628;51.072;3.712;2023-04-29T08:38:52;21.63;;;18.38;;
22924;SDS011;11628;51.072;3.712;2023-04-29T08:41:18;22.48;;;17.55;;
22924;SDS011;11628;51.072;3.712;2023-04-29T08:43:44;21.60;;;18.98;;
22924;SDS011;11628;51.072;3.712;2023-04-29T08:46:10;24.52;;;17.70;;
22924;SDS011;11628;51.072;3.712;2023-04-29T08:48:37;21.73;;;17.90;;
22924;SDS011;11628;51.072;3.712;2023-04-29T08:51:04;20.35;;;18.15;;
22924;SDS011;11628;51.072;3.712;2023-04-29T08:53:31;31.83;;;24.90;;
22924;SDS011;11628;51.072;3.712;2023-04-29T08:55:57;18.13;;;15.70;;
22924;SDS011;11628;51.072;3.712;2023-04-29T08:58:31;19.92;;;16.25;;
22924;SDS011;11628;51.072;3.712;2023-04-29T09:01:00;19.77;;;16.38;;
22924;SDS011;11628;51.072;3.712;2023-04-29T09:03:28;21.05;;;17.65;;
22924;SDS011;11628;51.072;3.712;2023-04-29T09:06:00;21.83;;;17.77;;
22924;SDS011;11628;51.072;3.712;2023-04-29T09:08:27;20.23;;;16.15;;
22924;SDS011;11628;51.072;3.712;2023-04-29T09:10:54;19.55;;;16.52;;
22924;SDS011;11628;51.072;3.712;2023-04-29T09:13:27;18.02;;;15.65;;
22924;SDS011;11628;51.072;3.712;2023-04-29T09:15:54;18.58;;;15.50;;
22924;SDS011;11628;51.072;3.712;2023-04-29T09:21:17;19.90;;;16.33;;
22924;SDS011;11628;51.072;3.712;2023-04-29T09:23:48;18.83;;;16.83;;
22924;SDS011;11628;51.072;3.712;2023-04-29T09:26:15;20.50;;;16.38;;
22924;SDS011;11628;51.072;3.712;2023-04-29T09:28:41;18.58;;;16.60;;
22924;SDS011;11628;51.072;3.712;2023-04-29T09:31:11;20.15;;;16.63;;
22924;SDS011;11628;51.072;3.712;2023-04-29T09:33:50;23.30;;;17.48;;
22924;SDS011;11628;51.072;3.712;2023-04-29T09:36:40;26.58;;;20.30;;
22924;SDS011;11628;51.072;3.712;2023-04-29T09:39:16;25.38;;;18.90;;
22924;SDS011;11628;51.072;3.712;2023-04-29T09:44:27;24.35;;;21.27;;
22924;SDS011;11628;51.072;3.712;2023-04-29T09:46:58;20.63;;;18.38;;
22924;SDS011;11628;51.072;3.712;2023-04-29T09:49:30;29.75;;;22.65;;
22924;SDS011;11628;51.072;3.712;2023-04-29T09:52:00;27.52;;;21.48;;
22924;SDS011;11628;51.072;3.712;2023-04-29T09:54:28;29.40;;;20.27;;
22924;SDS011;11628;51.072;3.712;2023-04-29T09:56:56;29.40;;;20.58;;
22924;SDS011;11628;51.072;3.712;2023-04-29T09:59:23;24.35;;;18.40;;
22924;SDS011;11628;51.072;3.712;2023-04-29T10:01:53;17.05;;;14.65;;
22924;SDS011;11628;51.072;3.712;2023-04-29T10:04:21;29.98;;;22.92;;
22924;SDS011;11628;51.072;3.712;2023-04-29T10:06:51;24.70;;;17.83;;
22924;SDS011;11628;51.072;3.712;2023-04-29T10:09:19;17.67;;;14.60;;
22924;SDS011;11628;51.072;3.712;2023-04-29T10:11:50;17.85;;;15.18;;
22924;SDS011;11628;51.072;3.712;2023-04-29T10:14:20;19.15;;;15.25;;
22924;SDS011;11628;51.072;3.712;2023-04-29T10:16:58;23.80;;;17.52;;
22924;SDS011;11628;51.072;3.712;2023-04-29T10:19:34;21.23;;;16.90;;
22924;SDS011;11628;51.072;3.712;2023-04-29T10:22:06;17.67;;;14.23;;
22924;SDS011;11628;51.072;3.712;2023-04-29T10:24:36;19.23;;;15.40;;
22924;SDS011;11628;51.072;3.712;2023-04-29T10:27:06;18.63;;;16.13;;
22924;SDS011;11628;51.072;3.712;2023-04-29T10:29:38;17.45;;;15.18;;
22924;SDS011;11628;51.072;3.712;2023-04-29T10:32:08;18.15;;;15.50;;
22924;SDS011;11628;51.072;3.712;2023-04-29T10:34:35;22.38;;;18.38;;
22924;SDS011;11628;51.072;3.712;2023-04-29T10:37:04;19.80;;;16.73;;
22924;SDS011;11628;51.072;3.712;2023-04-29T10:39:43;22.10;;;17.83;;
22924;SDS011;11628;51.072;3.712;2023-04-29T10:42:31;28.65;;;22.88;;
22924;SDS011;11628;51.072;3.712;2023-04-29T10:45:23;22.35;;;18.15;;
22924;SDS011;11628;51.072;3.712;2023-04-29T10:50:27;22.10;;;17.10;;
22924;SDS011;11628;51.072;3.712;2023-04-29T10:52:54;21.90;;;17.65;;
22924;SDS011;11628;51.072;3.712;2023-04-29T10:55:21;20.35;;;17.60;;
22924;SDS011;11628;51.072;3.712;2023-04-29T10:57:47;27.58;;;24.35;;
22924;SDS011;11628;51.072;3.712;2023-04-29T11:00:20;21.58;;;18.17;;
22924;SDS011;11628;51.072;3.712;2023-04-29T11:02:47;21.70;;;18.20;;
22924;SDS011;11628;51.072;3.712;2023-04-29T11:05:13;27.52;;;21.27;;
22924;SDS011;11628;51.072;3.712;2023-04-29T11:07:39;28.95;;;22.90;;
22924;SDS011;11628;51.072;3.712;2023-04-29T11:10:05;27.27;;;21.70;;
22924;SDS011;11628;51.072;3.712;2023-04-29T11:12:32;24.75;;;19.33;;
22924;SDS011;11628;51.072;3.712;2023-04-29T11:14:58;26.98;;;19.30;;
22924;SDS011;11628;51.072;3.712;2023-04-29T11:17:33;23.92;;;18.83;;
22924;SDS011;11628;51.072;3.712;2023-04-29T11:20:04;20.63;;;17.45;;
22924;SDS011;11628;51.072;3.712;2023-04-29T11:22:37;20.70;;;16.17;;
22924;SDS011;11628;51.072;3.712;2023-04-29T11:25:04;20.50;;;17.35;;
22924;SDS011;11628;51.072;3.712;2023-04-29T11:27:32;17.88;;;14.57;;
22924;SDS011;11628;51.072;3.712;2023-04-29T11:30:00;18.17;;;15.10;;
22924;SDS011;11628;51.072;3.712;2023-04-29T11:32:36;17.15;;;14.95;;
22924;SDS011;11628;51.072;3.712;2023-04-29T11:37:40;17.80;;;15.98;;
22924;SDS011;11628;51.072;3.712;2023-04-29T11:40:07;22.65;;;18.27;;
22924;SDS011;11628;51.072;3.712;2023-04-29T11:42:33;17.30;;;14.80;;
22924;SDS011;11628;51.072;3.712;2023-04-29T11:45:02;14.23;;;12.73;;
22924;SDS011;11628;51.072;3.712;2023-04-29T11:47:29;17.25;;;13.68;;
22924;SDS011;11628;51.072;3.712;2023-04-29T11:50:02;17.15;;;15.32;;
22924;SDS011;11628;51.072;3.712;2023-04-29T11:52:32;16.08;;;14.18;;
22924;SDS011;11628;51.072;3.712;2023-04-29T11:55:00;15.00;;;13.48;;
22924;SDS011;11628;51.072;3.712;2023-04-29T11:57:27;13.57;;;11.52;;
22924;SDS011;11628;51.072;3.712;2023-04-29T11:59:53;14.60;;;13.10;;
22924;SDS011;11628;51.072;3.712;2023-04-29T12:02:22;14.80;;;13.07;;
22924;SDS011;11628;51.072;3.712;2023-04-29T12:04:55;14.98;;;13.30;;
22924;SDS011;11628;51.072;3.712;2023-04-29T12:07:22;14.88;;;13.07;;
22924;SDS011;11628;51.072;3.712;2023-04-29T12:09:49;14.18;;;12.73;;
22924;SDS011;11628;51.072;3.712;2023-04-29T12:12:14;15.30;;;13.40;;
22924;SDS011;11628;51.072;3.712;2023-04-29T12:14:40;15.23;;;13.40;;
22924;SDS011;11628;51.072;3.712;2023-04-29T12:17:07;13.75;;;12.32;;
22924;SDS011;11628;51.072;3.712;2023-04-29T12:19:34;14.68;;;11.85;;
22924;SDS011;11628;51.072;3.712;2023-04-29T12:22:03;12.90;;;11.52;;
22924;SDS011;11628;51.072;3.712;2023-04-29T12:24:33;15.10;;;13.00;;
22924;SDS011;11628;51.072;3.712;2023-04-29T12:27:01;14.50;;;12.98;;
22924;SDS011;11628;51.072;3.712;2023-04-29T12:29:27;15.30;;;13.75;;
22924;SDS011;11628;51.072;3.712;2023-04-29T12:31:54;14.65;;;12.93;;
22924;SDS011;11628;51.072;3.712;2023-04-29T12:34:27;15.57;;;13.55;;
22924;SDS011;11628;51.072;3.712;2023-04-29T12:36:55;16.23;;;14.40;;
22924;SDS011;11628;51.072;3.712;2023-04-29T12:39:22;15.00;;;13.50;;
22924;SDS011;11628;51.072;3.712;2023-04-29T12:41:49;16.73;;;14.90;;
22924;SDS011;11628;51.072;3.712;2023-04-29T12:44:20;15.57;;;13.95;;
22924;SDS011;11628;51.072;3.712;2023-04-29T12:46:45;13.95;;;12.57;;
22924;SDS011;11628;51.072;3.712;2023-04-29T12:49:11;14.20;;;12.68;;
22924;SDS011;11628;51.072;3.712;2023-04-29T12:51:37;15.65;;;11.82;;
22924;SDS011;11628;51.072;3.712;2023-04-29T12:54:03;14.93;;;13.40;;
22924;SDS011;11628;51.072;3.712;2023-04-29T12:56:31;14.73;;;12.32;;
22924;SDS011;11628;51.072;3.712;2023-04-29T12:59:04;12.98;;;11.63;;
22924;SDS011;11628;51.072;3.712;2023-04-29T13:01:31;12.90;;;11.60;;
22924;SDS011;11628;51.072;3.712;2023-04-29T13:03:57;11.75;;;10.48;;
22924;SDS011;11628;51.072;3.712;2023-04-29T13:06:23;10.40;;;9.38;;
22924;SDS011;11628;51.072;3.712;2023-04-29T13:08:48;11.45;;;10.25;;
22924;SDS011;11628;51.072;3.712;2023-04-29T13:11:15;10.93;;;9.80;;
22924;SDS011;11628;51.072;3.712;2023-04-29T13:13:41;11.65;;;10.45;;
22924;SDS011;11628;51.072;3.712;2023-04-29T13:16:07;13.63;;;11.07;;
22924;SDS011;11628;51.072;3.712;2023-04-29T13:18:33;14.60;;;12.60;;
22924;SDS011;11628;51.072;3.712;2023-04-29T13:20:59;15.20;;;11.90;;
22924;SDS011;11628;51.072;3.712;2023-04-29T13:23:25;13.82;;;12.52;;
22924;SDS011;11628;51.072;3.712;2023-04-29T13:25:51;13.70;;;12.23;;
22924;SDS011;11628;51.072;3.712;2023-04-29T13:28:17;14.50;;;12.85;;
22924;SDS011;11628;51.072;3.712;2023-04-29T13:30:43;14.15;;;11.57;;
22924;SDS011;11628;51.072;3.712;2023-04-29T13:33:08;14.95;;;13.43;;
22924;SDS011;11628;51.072;3.712;2023-04-29T13:35:34;17.83;;;15.93;;
22924;SDS011;11628;51.072;3.712;2023-04-29T13:38:02;17.70;;;15.80;;
22924;SDS011;11628;51.072;3.712;2023-04-29T13:40:28;17.90;;;16.00;;
22924;SDS011;11628;51.072;3.712;2023-04-29T13:42:53;18.40;;;16.40;;
22924;SDS011;11628;51.072;3.712;2023-04-29T13:45:19;18.92;;;16.88;;
22924;SDS011;11628;51.072;3.712;2023-04-29T13:47:45;18.90;;;16.92;;
22924;SDS011;11628;51.072;3.712;2023-04-29T13:50:11;18.75;;;16.85;;
22924;SDS011;11628;51.072;3.712;2023-04-29T13:52:37;18.13;;;16.42;;
22924;SDS011;11628;51.072;3.712;2023-04-29T13:55:03;27.05;;;23.38;;
22924;SDS011;11628;51.072;3.712;2023-04-29T13:57:28;29.23;;;26.27;;
22924;SDS011;11628;51.072;3.712;2023-04-29T13:59:54;29.88;;;26.63;;
22924;SDS011;11628;51.072;3.712;2023-04-29T14:02:20;29.05;;;25.70;;
22924;SDS011;11628;51.072;3.712;2023-04-29T14:04:46;25.83;;;23.05;;
22924;SDS011;11628;51.072;3.712;2023-04-29T14:07:15;22.00;;;19.70;;
22924;SDS011;11628;51.072;3.712;2023-04-29T14:09:41;21.75;;;19.45;;
22924;SDS011;11628;51.072;3.712;2023-04-29T14:12:07;18.33;;;16.52;;
22924;SDS011;11628;51.072;3.712;2023-04-29T14:14:33;18.73;;;16.40;;
22924;SDS011;11628;51.072;3.712;2023-04-29T14:16:59;22.17;;;20.10;;
22924;SDS011;11628;51.072;3.712;2023-04-29T14:19:25;20.75;;;18.63;;
22924;SDS011;11628;51.072;3.712;2023-04-29T14:21:51;19.42;;;17.48;;
22924;SDS011;11628;51.072;3.712;2023-04-29T14:24:17;20.58;;;18.40;;
22924;SDS011;11628;51.072;3.712;2023-04-29T14:26:43;30.00;;;26.70;;
22924;SDS011;11628;51.072;3.712;2023-04-29T14:29:08;28.88;;;24.02;;
22924;SDS011;11628;51.072;3.712;2023-04-29T14:31:35;26.40;;;23.15;;
22924;SDS011;11628;51.072;3.712;2023-04-29T14:34:02;24.92;;;22.20;;
22924;SDS011;11628;51.072;3.712;2023-04-29T14:36:28;29.45;;;26.27;;
22924;SDS011;11628;51.072;3.712;2023-04-29T14:38:54;27.17;;;24.02;;
22924;SDS011;11628;51.072;3.712;2023-04-29T14:41:20;23.75;;;21.25;;
22924;SDS011;11628;51.072;3.712;2023-04-29T14:43:45;29.13;;;23.85;;